Time;durP1;ratioP1;P1;durP2;ratioP2;P2;SDS_P1;SDS_P2;PMS_P1;PMS_P2;Temp;Humidity;BMP_temperature;BMP_pressure;BME280_temperature;BME280_humidity;BME280_pressure;Samples;Min_cycle;Max_cycle;Signal;HPM_P1;HPM_P2
2023/10/10 00:02:07;;;;;;;;;;;;;;;15.25;66.50;100218.47;4455210;32;34245;-75
2023/10/10 00:04:35;;;;;;;;;;;;;;;15.41;66.09;100215.50;4461272;32;34199;-75
2023/10/10 00:07:04;;;;;;;;;;;;;;;15.51;65.80;100222.81;4456884;32;33243;-75
2023/10/10 00:09:31;;;;;;;;;;;;;;;15.39;66.36;100217.19;4457077;32;33956;-74
2023/10/10 00:11:59;;;;;;;;;;;;;;;15.39;66.62;100222.41;4462156;32;34276;-75
2023/10/10 00:14:29;;;;;;;;;;;;;;;15.52;66.23;100214.13;4464925;32;32717;-75
2023/10/10 00:16:59;;;;;;;;;;;;;;;15.50;66.21;100215.81;4454800;32;32387;-75
2023/10/10 00:19:31;;;;;;;;;;;;;;;15.54;66.40;100211.56;4459769;32;32074;-74
2023/10/10 00:22:01;;;;;;;;;;;;;;;15.48;66.26;100211.38;4460456;32;34185;-74
2023/10/10 00:24:32;;;;;;;;;;;;;;;15.45;66.57;100217.41;4455990;32;33091;-74
2023/10/10 00:27:07;;;;;;;;;;;;;;;15.40;66.57;100213.75;4463830;32;33436;-74
2023/10/10 00:29:34;;;;;;;;;;;;;;;15.47;66.52;100215.72;4447803;32;32045;-74
2023/10/10 00:32:05;;;;;;;;;;;;;;;15.40;66.69;100218.97;4456521;32;34218;-74
2023/10/10 00:34:37;;;;;;;;;;;;;;;15.45;66.69;100220.03;4457371;32;31342;-74
2023/10/10 00:37:08;;;;;;;;;;;;;;;15.44;66.82;100227.78;4455739;32;33008;-74
2023/10/10 00:39:36;;;;;;;;;;;;;;;15.43;66.95;100234.75;4463941;32;33266;-74
2023/10/10 00:42:19;;;;;;;;;;;;;;;15.40;67.13;100218.97;4460402;32;34795;-74
2023/10/10 00:44:48;;;;;;;;;;;;;;;15.36;67.52;100217.09;4462441;32;34090;-74
2023/10/10 00:47:26;;;;;;;;;;;;;;;15.25;68.08;100218.47;4455620;32;34594;-74
2023/10/10 00:49:54;;;;;;;;;;;;;;;15.35;67.86;100210.09;4454468;32;32851;-74
2023/10/10 00:52:22;;;;;;;;;;;;;;;15.28;68.09;100224.69;4463723;32;34109;-74
2023/10/10 00:54:50;;;;;;;;;;;;;;;15.39;67.66;100225.03;4453605;32;33056;-74
2023/10/10 00:57:17;;;;;;;;;;;;;;;15.34;67.87;100224.88;4462043;32;33817;-74
2023/10/10 00:59:45;;;;;;;;;;;;;;;15.42;67.51;100227.75;4453821;32;31865;-74
2023/10/10 01:02:14;;;;;;;;;;;;;;;15.31;67.29;100239.56;4464013;32;34279;-73
2023/10/10 01:05:12;;;;;;;;;;;;;;;15.14;67.51;100234.69;4463204;32;34204;-74
2023/10/10 01:07:29;;;;;;;;;;;;;;;15.08;67.48;100234.44;4454671;32;33470;-74
2023/10/10 01:09:58;;;;;;;;;;;;;;;14.86;68.27;100239.81;4456390;32;33323;-74
2023/10/10 01:12:26;;;;;;;;;;;;;;;15.07;67.71;100243.13;4458848;32;34675;-74
2023/10/10 01:14:55;;;;;;;;;;;;;;;14.96;67.53;100241.88;4464513;32;34117;-74
2023/10/10 01:17:28;;;;;;;;;;;;;;;14.88;67.75;100253.78;4454932;32;33443;-74
2023/10/10 01:20:18;;;;;;;;;;;;;;;15.01;66.69;100249.84;4457549;32;32972;-74
2023/10/10 01:22:47;;;;;;;;;;;;;;;14.87;66.78;100252.91;4459353;32;33678;-74
2023/10/10 01:28:05;;;;;;;;;;;;;;;14.87;67.03;100252.00;4462399;32;31360;-74
2023/10/10 01:33:35;;;;;;;;;;;;;;;14.75;66.95;100261.16;4463865;32;34297;-74
2023/10/10 01:36:03;;;;;;;;;;;;;;;14.80;66.49;100265.69;4462415;32;33539;-74
2023/10/10 01:38:41;;;;;;;;;;;;;;;14.65;67.26;100260.78;4458118;32;32871;-74
2023/10/10 01:44:03;;;;;;;;;;;;;;;14.73;66.94;100265.44;4463893;32;33752;-74
2023/10/10 01:46:35;;;;;;;;;;;;;;;14.61;67.50;100265.00;4459476;32;33870;-74
2023/10/10 01:49:06;;;;;;;;;;;;;;;14.68;67.58;100259.19;4460127;32;33332;-74
2023/10/10 01:51:34;;;;;;;;;;;;;;;14.90;67.16;100262.53;4459652;32;33393;-73
2023/10/10 01:54:12;;;;;;;;;;;;;;;14.84;66.72;100262.34;4465599;32;33720;-73
2023/10/10 01:56:39;;;;;;;;;;;;;;;14.80;66.84;100250.03;4465039;32;34911;-73
2023/10/10 01:59:14;;;;;;;;;;;;;;;14.67;67.11;100254.78;4457101;32;33519;-73
2023/10/10 02:01:41;;;;;;;;;;;;;;;14.66;67.63;100259.94;4463525;32;33964;-74
2023/10/10 02:04:10;;;;;;;;;;;;;;;14.62;67.77;100252.84;4464685;32;34109;-73
2023/10/10 02:06:40;;;;;;;;;;;;;;;14.69;67.65;100253.13;4462349;32;34064;-74
2023/10/10 02:09:28;;;;;;;;;;;;;;;14.83;67.37;100255.31;4463955;32;33827;-74
2023/10/10 02:11:56;;;;;;;;;;;;;;;14.83;67.22;100261.41;4456643;32;33922;-74
2023/10/10 02:14:26;;;;;;;;;;;;;;;14.99;65.87;100259.34;4466309;32;34893;-72
2023/10/10 02:16:54;;;;;;;;;;;;;;;14.83;66.24;100255.31;4456379;32;33030;-73
2023/10/10 02:19:32;;;;;;;;;;;;;;;14.82;66.51;100258.78;4454724;32;33295;-74
2023/10/10 02:28:00;;;;;;;;;;;;;;;14.79;66.17;100266.50;4461362;32;34195;-72
2023/10/10 02:30:38;;;;;;;;;;;;;;;14.82;66.21;100274.44;4458442;32;31357;-73
2023/10/10 02:35:56;;;;;;;;;;;;;;;14.96;66.20;100267.09;4454404;32;34105;-73
2023/10/10 02:38:31;;;;;;;;;;;;;;;15.05;65.55;100262.19;4453981;32;33930;-73
2023/10/10 02:41:22;;;;;;;;;;;;;;;14.99;65.74;100265.47;4437392;32;33340;-73
2023/10/10 02:46:35;;;;;;;;;;;;;;;14.85;65.87;100266.69;4444962;32;33966;-72
2023/10/10 02:49:12;;;;;;;;;;;;;;;14.69;66.71;100279.19;4447867;32;34747;-73
2023/10/10 02:51:48;;;;;;;;;;;;;;;14.74;66.19;100271.56;4445641;32;34183;-72
2023/10/10 02:54:35;;;;;;;;;;;;;;;14.73;66.15;100270.66;4436002;32;33900;-73
2023/10/10 02:59:50;;;;;;;;;;;;;;;14.86;65.21;100271.09;4445066;32;33949;-73
2023/10/10 03:02:19;;;;;;;;;;;;;;;14.85;65.37;100279.75;4431835;32;33172;-73
2023/10/10 03:05:05;;;;;;;;;;;;;;;14.54;66.34;100289.03;4441307;32;34415;-73
2023/10/10 03:07:34;;;;;;;;;;;;;;;14.55;66.15;100293.44;4446811;32;35036;-73
2023/10/10 03:12:31;;;;;;;;;;;;;;;14.47;66.00;100281.84;4453184;32;33247;-73
2023/10/10 03:20:25;;;;;;;;;;;;;;;14.35;66.66;100290.97;4435025;32;34194;-73
2023/10/10 03:23:10;;;;;;;;;;;;;;;14.35;66.79;100285.78;4439966;32;33393;-73
2023/10/10 03:25:51;;;;;;;;;;;;;;;14.27;66.82;100289.78;4442598;32;34128;-73
2023/10/10 03:28:20;;;;;;;;;;;;;;;14.40;66.78;100292.88;4449681;32;36245;-73
2023/10/10 03:30:55;;;;;;;;;;;;;;;14.48;66.56;100301.84;4436690;32;34115;-73
2023/10/10 05:23:36;;;;;;;;;;;;;;;14.21;64.19;100354.69;4453257;32;33347;-75
2023/10/10 05:26:06;;;;;;;;;;;;;;;14.07;65.09;100361.09;4454840;32;35006;-74
2023/10/10 05:28:34;;;;;;;;;;;;;;;14.19;70.34;100369.37;4451157;32;33853;-77
2023/10/10 05:31:02;;;;;;;;;;;;;;;14.24;70.22;100366.97;4465162;32;33916;-76
2023/10/10 05:33:36;;;;;;;;;;;;;;;14.05;69.84;100373.19;4463122;32;33306;-77
2023/10/10 05:36:06;;;;;;;;;;;;;;;14.43;68.99;100373.75;4463975;32;33753;-75
2023/10/10 05:38:39;;;;;;;;;;;;;;;14.60;67.45;100377.06;4463373;32;33975;-73
2023/10/10 05:41:07;;;;;;;;;;;;;;;14.67;66.66;100389.50;4460852;32;34760;-77
2023/10/10 05:43:36;;;;;;;;;;;;;;;14.54;66.45;100388.09;4461543;32;32840;-73
2023/10/10 05:46:06;;;;;;;;;;;;;;;14.44;66.82;100393.81;4462211;32;34987;-74
2023/10/10 05:48:35;;;;;;;;;;;;;;;14.40;66.26;100389.31;4457596;32;34206;-73
2023/10/10 05:51:03;;;;;;;;;;;;;;;14.67;66.27;100399.94;4463037;32;33602;-75
2023/10/10 05:53:33;;;;;;;;;;;;;;;14.50;66.35;100407.94;4459843;32;32905;-73
2023/10/10 05:56:12;;;;;;;;;;;;;;;14.71;65.04;100401.81;4462103;32;33135;-76
2023/10/10 05:58:44;;;;;;;;;;;;;;;15.12;63.90;100403.34;4459955;32;33824;-77
2023/10/10 06:01:13;;;;;;;;;;;;;;;15.08;63.90;100403.16;4468714;32;34751;-75
2023/10/10 06:03:41;;;;;;;;;;;;;;;14.91;62.88;100408.69;4464312;32;33489;-73
2023/10/10 06:06:13;;;;;;;;;;;;;;;14.97;63.88;100405.41;4465419;32;34377;-76
2023/10/10 06:08:44;;;;;;;;;;;;;;;15.36;61.97;100405.06;4462272;32;33739;-74
2023/10/10 06:11:15;;;;;;;;;;;;;;;15.18;61.46;100409.59;4458659;32;34211;-77
2023/10/10 06:13:46;;;;;;;;;;;;;;;15.09;61.68;100416.28;4467065;32;33350;-76
2023/10/10 06:16:14;;;;;;;;;;;;;;;15.08;62.54;100413.59;4455815;32;34130;-73
2023/10/10 06:18:44;;;;;;;;;;;;;;;14.61;63.93;100421.44;4464827;32;33758;-78
2023/10/10 06:21:14;;;;;;;;;;;;;;;14.64;64.83;100426.78;4463808;32;34111;-77
2023/10/10 06:23:43;;;;;;;;;;;;;;;14.94;63.31;100421.81;4467015;32;33148;-74
2023/10/10 06:26:14;;;;;;;;;;;;;;;15.00;64.35;100435.94;4462556;32;35009;-76
2023/10/10 06:28:45;;;;;;;;;;;;;;;15.27;64.30;100436.03;4464462;32;33323;-76
2023/10/10 06:31:19;;;;;;;;;;;;;;;15.31;71.44;100437.91;4463553;32;34923;-74
2023/10/10 06:33:51;;;;;;;;;;;;;;;15.53;67.57;100435.25;4461391;32;33257;-75
2023/10/10 06:41:40;;;;;;;;;;;;;;;15.29;61.98;100434.38;4454444;32;34054;-74
2023/10/10 06:44:13;;;;;;;;;;;;;;;15.52;59.89;100438.69;4459426;32;33488;-74
2023/10/10 06:46:46;;;;;;;;;;;;;;;15.19;61.32;100447.94;4465387;32;35132;-77
2023/10/10 06:49:14;;;;;;;;;;;;;;;15.08;60.06;100445.78;4462824;32;33962;-77
2023/10/10 06:51:41;;;;;;;;;;;;;;;15.24;60.30;100451.56;4464613;32;34018;-75
2023/10/10 06:54:19;;;;;;;;;;;;;;;15.11;61.68;100456.34;4464900;32;32426;-74
2023/10/10 06:59:29;;;;;;;;;;;;;;;15.35;61.18;100468.50;4462290;32;34216;-77
2023/10/10 07:01:59;;;;;;;;;;;;;;;14.93;61.54;100471.31;4468577;32;34415;-74
2023/10/10 07:04:28;;;;;;;;;;;;;;;15.21;61.48;100472.38;4466988;32;32293;-73
2023/10/10 07:07:00;;;;;;;;;;;;;;;15.36;60.31;100461.59;4460390;32;34324;-74
2023/10/10 07:09:29;;;;;;;;;;;;;;;15.14;61.90;100466.91;4460885;32;33919;-74
2023/10/10 07:12:09;;;;;;;;;;;;;;;15.56;60.40;100460.56;4459982;32;34230;-73
2023/10/10 07:14:43;;;;;;;;;;;;;;;15.56;61.66;100460.56;4456478;32;33668;-73
2023/10/10 07:17:11;;;;;;;;;;;;;;;15.43;60.58;100474.94;4457556;32;34855;-73
2023/10/10 07:20:54;;;;;;;;;;;;;;;15.25;61.79;100474.25;4463205;32;34025;-75
2023/10/10 07:22:36;;;;;;;;;;;;;;;15.49;62.28;100485.59;4458987;32;34051;-74
2023/10/10 07:25:07;;;;;;;;;;;;;;;15.45;61.54;100486.31;4461088;32;33836;-76
2023/10/10 07:27:35;;;;;;;;;;;;;;;15.38;59.91;100484.31;4462765;32;33813;-75
2023/10/10 07:32:43;;;;;;;;;;;;;;;15.59;60.78;100483.28;4466858;32;34073;-75
2023/10/10 07:35:17;;;;;;;;;;;;;;;15.69;59.92;100475.84;4458781;32;34050;-73
2023/10/10 07:37:45;;;;;;;;;;;;;;;15.63;57.75;100482.56;4462416;32;33847;-74
2023/10/10 07:40:28;;;;;;;;;;;;;;;15.36;60.01;100488.59;4467590;32;34844;-75
2023/10/10 07:42:59;;;;;;;;;;;;;;;15.27;61.09;100485.63;4463419;32;34055;-77
2023/10/10 07:45:33;;;;;;;;;;;;;;;15.73;59.42;100487.31;4456360;32;33167;-74
2023/10/10 07:50:35;;;;;;;;;;;;;;;15.88;59.07;100480.00;4461284;32;33952;-74
2023/10/10 07:53:04;;;;;;;;;;;;;;;15.66;60.21;100480.94;4459218;32;33787;-74
2023/10/10 07:55:34;;;;;;;;;;;;;;;15.59;60.63;100476.34;4461782;32;33370;-74
2023/10/10 07:58:06;;;;;;;;;;;;;;;15.88;58.71;100466.94;4464627;32;33748;-74
2023/10/10 08:00:37;;;;;;;;;;;;;;;15.84;57.85;100478.13;4456818;32;34778;-74
2023/10/10 08:03:06;;;;;;;;;;;;;;;15.88;57.03;100480.00;4451064;32;34957;-73
2023/10/10 08:05:33;;;;;;;;;;;;;;;15.67;57.75;100485.34;4460063;32;33498;-74
2023/10/10 08:08:05;;;;;;;;;;;;;;;15.49;58.53;100479.44;4465630;32;34006;-74
2023/10/10 08:10:39;;;;;;;;;;;;;;;16.00;57.54;100479.53;4456224;32;34250;-74
2023/10/10 08:13:14;;;;;;;;;;;;;;;15.90;57.84;100483.56;4459973;32;34058;-73
2023/10/10 08:15:56;;;;;;;;;;;;;;;15.42;55.34;100475.75;4458292;32;33758;-73
2023/10/10 08:21:13;;;;;;;;;;;;;;;15.57;57.75;100487.56;4458604;32;33871;-73
2023/10/10 08:23:47;;;;;;;;;;;;;;;15.73;56.25;100479.47;4461652;32;31772;-74
2023/10/10 08:26:19;;;;;;;;;;;;;;;15.80;56.49;100481.47;4465775;32;33255;-74
2023/10/10 08:28:47;;;;;;;;;;;;;;;16.13;55.82;100486.06;4461658;32;34265;-74
2023/10/10 08:31:14;;;;;;;;;;;;;;;16.18;55.37;100494.94;4463766;32;34699;-74
2023/10/10 08:33:46;;;;;;;;;;;;;;;16.23;55.61;100495.97;4459557;32;33361;-74
2023/10/10 08:36:26;;;;;;;;;;;;;;;16.17;56.63;100495.78;4459067;32;33199;-74
2023/10/10 08:38:56;;;;;;;;;;;;;;;16.06;57.09;100504.97;4452947;32;34089;-74
2023/10/10 08:41:27;;;;;;;;;;;;;;;16.23;55.63;100495.09;4459810;32;34006;-74
2023/10/10 08:44:06;;;;;;;;;;;;;;;16.51;54.74;100510.84;4461029;32;33840;-74
2023/10/10 08:46:40;;;;;;;;;;;;;;;16.43;54.73;100503.56;4464318;32;33890;-74
2023/10/10 08:49:08;;;;;;;;;;;;;;;16.45;54.80;100508.00;4454003;32;34897;-74
2023/10/10 08:51:36;;;;;;;;;;;;;;;16.62;53.83;100508.56;4454335;32;34899;-74
2023/10/10 08:54:09;;;;;;;;;;;;;;;16.44;54.99;100513.22;4462427;32;33909;-74
2023/10/10 08:56:59;;;;;;;;;;;;;;;16.21;56.10;100509.84;4464230;32;33445;-73
2023/10/10 08:59:28;;;;;;;;;;;;;;;16.20;56.20;100508.06;4455308;32;34915;-73
2023/10/10 09:02:17;;;;;;;;;;;;;;;16.16;56.75;100512.28;4464075;32;34292;-73
2023/10/10 09:04:44;;;;;;;;;;;;;;;16.23;56.73;100516.88;4453602;32;34401;-73
2023/10/10 09:07:23;;;;;;;;;;;;;;;16.14;58.54;100516.56;4468463;32;33238;-73
2023/10/10 09:10:05;;;;;;;;;;;;;;;16.70;56.11;100520.12;4458695;32;218583;-73
2023/10/10 09:12:34;;;;;;;;;;;;;;;16.78;55.64;100519.50;4464090;32;34128;-73
2023/10/10 09:15:11;;;;;;;;;;;;;;;16.57;56.34;100525.81;4462854;32;34279;-74
2023/10/10 09:17:40;;;;;;;;;;;;;;;16.33;56.79;100530.28;4457573;32;34120;-73
2023/10/10 09:20:23;;;;;;;;;;;;;;;16.81;55.11;100530.94;4462501;32;32419;-73
2023/10/10 09:22:55;;;;;;;;;;;;;;;16.67;55.42;100532.25;4455528;32;34325;-74
2023/10/10 09:25:41;;;;;;;;;;;;;;;16.72;55.78;100543.72;4459281;32;33892;-73
2023/10/10 09:28:15;;;;;;;;;;;;;;;16.47;56.24;100540.31;4462533;32;33145;-73
2023/10/10 09:30:50;;;;;;;;;;;;;;;16.68;55.55;100532.28;4464524;32;33551;-73
2023/10/10 09:36:19;;;;;;;;;;;;;;;16.59;55.55;100534.63;4457242;32;34128;-72
2023/10/10 09:38:48;;;;;;;;;;;;;;;16.49;56.46;100533.41;4464561;32;33444;-73
2023/10/10 09:55:53;;;;;;;;;;;;;;;16.87;56.69;100540.75;4455714;32;35047;-73
2023/10/10 09:58:00;;;;;;;;;;;;;;;17.00;56.22;100537.69;4462099;32;33729;-73
2023/10/10 10:09:09;;;;;;;;;;;;;;;17.19;55.89;100532.97;4465032;32;34487;-73
2023/10/10 10:11:56;;;;;;;;;;;;;;;17.27;56.04;100528.87;4469772;32;34088;-73
2023/10/10 10:14:28;;;;;;;;;;;;;;;17.55;55.43;100534.91;4467307;32;33993;-73
2023/10/10 10:17:18;;;;;;;;;;;;;;;17.54;53.96;100535.72;4466249;32;34987;-73
2023/10/10 10:19:46;;;;;;;;;;;;;;;17.67;51.66;100532.59;4467655;32;33871;-73
2023/10/10 10:22:17;;;;;;;;;;;;;;;17.56;50.79;100536.66;4457518;32;32827;-73
2023/10/10 10:24:45;;;;;;;;;;;;;;;17.47;51.75;100535.56;4464501;32;33369;-73
2023/10/10 10:27:34;;;;;;;;;;;;;;;17.68;50.95;100532.66;4462968;32;34075;-73
2023/10/10 10:30:30;;;;;;;;;;;;;;;17.58;51.77;100529.75;4464316;32;34714;-73
2023/10/10 10:32:58;;;;;;;;;;;;;;;17.66;51.86;100531.72;4462861;32;33018;-73
2023/10/10 10:35:46;;;;;;;;;;;;;;;17.83;51.31;100532.19;4450789;32;34180;-73
2023/10/10 10:38:15;;;;;;;;;;;;;;;17.82;51.28;100540.00;4458241;32;34922;-73
2023/10/10 10:40:47;;;;;;;;;;;;;;;17.92;51.68;100543.78;4464825;32;33089;-73
2023/10/10 10:43:20;;;;;;;;;;;;;;;18.00;50.61;100531.78;4458301;32;33202;-73
2023/10/10 10:45:51;;;;;;;;;;;;;;;17.87;51.45;100538.44;4459438;32;34977;-73
2023/10/10 10:48:33;;;;;;;;;;;;;;;18.00;50.87;100537.94;4468009;32;34236;-73
2023/10/10 10:51:22;;;;;;;;;;;;;;;17.74;51.37;100534.56;4466498;32;33953;-73
2023/10/10 10:53:58;;;;;;;;;;;;;;;17.61;51.88;100532.44;4454104;32;33911;-73
2023/10/10 10:59:13;;;;;;;;;;;;;;;17.75;52.21;100538.97;4466654;32;34067;-73
2023/10/10 11:01:57;;;;;;;;;;;;;;;17.72;51.99;100541.50;4460855;32;33097;-73
2023/10/10 11:04:42;;;;;;;;;;;;;;;17.67;51.57;100540.47;4456190;32;33887;-73
2023/10/10 11:07:16;;;;;;;;;;;;;;;17.40;52.10;100533.62;4461086;32;33462;-73
2023/10/10 11:09:52;;;;;;;;;;;;;;;17.45;52.46;100536.38;4462289;32;34295;-73
2023/10/10 11:12:21;;;;;;;;;;;;;;;17.38;52.52;100532.66;4457012;32;33730;-73
2023/10/10 11:14:49;;;;;;;;;;;;;;;17.32;52.94;100535.13;4462156;32;34177;-73
2023/10/10 11:17:19;;;;;;;;;;;;;;;17.31;52.93;100538.59;4464529;32;33815;-73
2023/10/10 11:19:47;;;;;;;;;;;;;;;17.40;52.19;100536.25;4462203;32;35029;-73
2023/10/10 11:25:04;;;;;;;;;;;;;;;17.49;52.25;100533.00;4464936;32;33973;-73
2023/10/10 11:27:35;;;;;;;;;;;;;;;17.40;52.23;100531.00;4461612;32;34462;-73
2023/10/10 11:30:08;;;;;;;;;;;;;;;17.36;52.34;100534.34;4453953;32;33252;-73
2023/10/10 11:32:46;;;;;;;;;;;;;;;17.26;52.33;100524.47;4463706;32;34936;-73
2023/10/10 11:35:25;;;;;;;;;;;;;;;17.29;51.95;100517.59;4465547;32;33618;-73
2023/10/10 11:37:59;;;;;;;;;;;;;;;17.36;52.81;100508.16;4460279;32;33581;-73
2023/10/10 11:42:59;;;;;;;;;;;;;;;17.48;52.46;100505.00;4463914;32;34500;-73
2023/10/10 11:45:26;;;;;;;;;;;;;;;17.47;52.76;100509.38;4457392;32;33395;-73
2023/10/10 11:48:00;;;;;;;;;;;;;;;17.62;52.49;100508.91;4463432;32;34989;-73
2023/10/10 11:51:01;;;;;;;;;;;;;;;17.70;52.74;100506.50;4466473;32;34030;-73
2023/10/10 11:53:29;;;;;;;;;;;;;;;17.69;52.61;100507.34;4435607;32;34128;-73
2023/10/10 11:56:02;;;;;;;;;;;;;;;17.82;52.46;100496.34;4461582;32;34198;-73
2023/10/10 11:58:35;;;;;;;;;;;;;;;17.93;52.01;100493.16;4467948;32;34547;-73
2023/10/10 12:01:05;;;;;;;;;;;;;;;18.03;51.96;100495.16;4456785;32;34099;-73
2023/10/10 12:06:02;;;;;;;;;;;;;;;18.19;51.10;100481.56;4458803;32;33959;-73
2023/10/10 12:08:29;;;;;;;;;;;;;;;18.27;51.06;100474.81;4466847;32;34050;-73
2023/10/10 12:11:42;;;;;;;;;;;;;;;18.42;51.41;100476.00;4454647;32;33836;-73
2023/10/10 12:13:44;;;;;;;;;;;;;;;18.63;50.68;100476.50;4454827;32;35113;-73
2023/10/10 12:16:12;;;;;;;;;;;;;;;18.77;51.20;100473.31;4465247;32;34149;-73
2023/10/10 12:18:49;;;;;;;;;;;;;;;18.73;50.79;100468.84;4460662;32;33943;-73
2023/10/10 12:21:21;;;;;;;;;;;;;;;18.99;49.92;100462.47;4461965;32;34182;-73
2023/10/10 12:23:50;;;;;;;;;;;;;;;19.14;49.79;100463.63;4456732;32;33865;-73
2023/10/10 12:26:18;;;;;;;;;;;;;;;19.11;50.68;100471.47;4460418;32;33866;-73
2023/10/10 12:28:48;;;;;;;;;;;;;;;19.17;50.65;100471.59;4456570;32;33994;-73
2023/10/10 12:31:16;;;;;;;;;;;;;;;19.29;50.36;100477.06;4463332;32;33910;-73
2023/10/10 12:33:48;;;;;;;;;;;;;;;19.34;49.83;100483.31;4459832;32;34154;-73
2023/10/10 12:36:16;;;;;;;;;;;;;;;19.22;49.93;100481.31;4464595;32;33887;-73
2023/10/10 12:38:48;;;;;;;;;;;;;;;19.02;50.73;100482.62;4465876;32;34015;-73
2023/10/10 12:41:20;;;;;;;;;;;;;;;19.14;51.14;100482.00;4458207;32;33963;-73
2023/10/10 12:43:49;;;;;;;;;;;;;;;19.09;51.01;100483.69;4462694;32;34698;-73
2023/10/10 12:46:17;;;;;;;;;;;;;;;19.10;51.32;100480.19;4465887;32;33278;-73
2023/10/10 12:48:46;;;;;;;;;;;;;;;19.14;51.75;100467.16;4464342;32;34039;-73
2023/10/10 12:51:14;;;;;;;;;;;;;;;19.38;51.90;100466.75;4459929;32;33843;-73
2023/10/10 12:53:43;;;;;;;;;;;;;;;19.67;50.96;100452.41;4464582;32;34129;-73
2023/10/10 12:56:12;;;;;;;;;;;;;;;19.76;50.42;100464.00;4463152;32;32754;-73
2023/10/10 12:58:43;;;;;;;;;;;;;;;19.62;50.63;100460.19;4463216;32;34196;-73
2023/10/10 13:01:23;;;;;;;;;;;;;;;19.69;50.48;100462.06;4457917;32;34096;-73
2023/10/10 13:03:51;;;;;;;;;;;;;;;19.89;50.16;100464.22;4456350;32;33938;-73
2023/10/10 13:06:22;;;;;;;;;;;;;;;19.94;50.30;100466.06;4460627;32;33300;-73
2023/10/10 13:11:32;;;;;;;;;;;;;;;20.08;49.94;100455.78;4455583;32;33937;-74
2023/10/10 13:14:09;;;;;;;;;;;;;;;20.28;50.19;100457.84;4459253;32;33765;-73
2023/10/10 13:19:11;;;;;;;;;;;;;;;20.40;50.93;100445.75;4457511;32;34290;-73
2023/10/10 13:21:39;;;;;;;;;;;;;;;20.33;51.20;100443.03;4449948;32;34660;-74
2023/10/10 13:24:11;;;;;;;;;;;;;;;20.53;51.12;100445.94;4457219;32;33791;-73
2023/10/10 13:26:41;;;;;;;;;;;;;;;20.78;50.37;100444.56;4462275;32;34038;-74
2023/10/10 13:29:08;;;;;;;;;;;;;;;20.84;50.99;100444.63;4457518;32;35035;-73
2023/10/10 13:31:37;;;;;;;;;;;;;;;20.83;51.20;100448.16;4460582;32;34833;-74
2023/10/10 13:34:05;;;;;;;;;;;;;;;21.05;50.46;100444.03;4462507;32;34086;-74
2023/10/10 13:36:33;;;;;;;;;;;;;;;21.10;50.45;100441.47;4457346;32;33413;-73
2023/10/10 13:39:05;;;;;;;;;;;;;;;21.02;50.94;100444.88;4465959;32;34231;-73
2023/10/10 13:41:36;;;;;;;;;;;;;;;21.25;50.46;100441.66;4459507;32;35077;-73
2023/10/10 13:44:03;;;;;;;;;;;;;;;21.25;50.48;100436.38;4460958;32;34589;-74
2023/10/10 13:46:35;;;;;;;;;;;;;;;21.56;50.04;100434.13;4464847;32;32006;-74
2023/10/10 13:49:04;;;;;;;;;;;;;;;21.57;49.72;100427.97;4460669;32;34352;-73
2023/10/10 13:51:39;;;;;;;;;;;;;;;21.80;49.29;100430.81;4464252;32;34641;-73
2023/10/10 13:54:07;;;;;;;21.00;10.70;;;;;;;21.71;49.77;100436.00;4461446;32;33884;-74
2023/10/10 13:56:35;;;;;;;;;;;;;;;21.76;49.49;100429.91;4456417;32;33494;-74
2023/10/10 13:59:02;;;;;;;;;;;;;;;21.97;48.78;100428.31;4465854;32;35025;-73
2023/10/10 14:01:36;;;;;;;;;;;;;;;21.78;49.33;100429.91;4457112;32;33926;-74
2023/10/10 14:04:15;;;;;;;;;;;;;;;21.64;50.10;100431.56;4459106;32;34193;-73
2023/10/10 14:06:47;;;;;;;;;;;;;;;21.79;50.04;100429.94;4452057;32;33571;-73
2023/10/10 14:09:25;;;;;;;;;;;;;;;21.93;49.93;100434.44;4452754;32;34463;-73
2023/10/10 14:12:00;;;;;;;;;;;;;;;22.00;49.65;100433.66;4464264;32;34258;-74
2023/10/10 14:14:28;;;;;;;;;;;;;;;21.80;50.36;100423.78;4465742;32;34010;-73
2023/10/10 14:16:56;;;;;;;;;;;;;;;21.98;50.12;100424.81;4458198;32;33944;-76
2023/10/10 14:19:24;;;;;;;;;;;;;;;22.18;49.83;100423.22;4468569;32;33866;-76
2023/10/10 14:21:54;;;;;;;;;;;;;;;22.17;49.71;100431.13;4466466;32;31634;-75
2023/10/10 14:24:22;;;;;;;;;;;;;;;22.17;49.81;100437.28;4468157;32;33096;-73
2023/10/10 14:26:49;;;;;;;;;;;;;;;22.29;49.83;100433.00;4462807;32;32727;-75
2023/10/10 14:29:17;;;;;;;;;;;;;;;22.31;49.92;100433.87;4464264;32;33962;-75
2023/10/10 14:31:45;;;;;;;;;;;;;;;22.41;49.65;100419.91;4462327;32;33503;-75
2023/10/10 14:34:19;;;;;;;;;;;;;;;22.53;48.73;100424.34;4460050;32;33833;-75
2023/10/10 14:36:51;;;;;;;;;;;;;;;22.43;49.01;100427.81;4468453;32;32600;-73
2023/10/10 14:39:31;;;;;;;;;;;;;;;22.25;49.68;100423.28;4463746;32;34709;-76
2023/10/10 14:41:59;;;;;;;;;;;;;;;22.29;50.07;100430.34;4462963;32;34224;-72
2023/10/10 14:44:28;;;;;;;;;;;;;;;22.38;49.54;100422.50;4459976;32;33972;-73
2023/10/10 14:47:02;;;;;;;;;;;;;;;22.31;49.64;100420.69;4457483;32;33106;-76
2023/10/10 14:49:30;;;;;;;;;;;;;;;22.21;49.72;100421.47;4458654;32;34816;-76
2023/10/10 14:52:04;;;;;;;;;;;;;;;22.19;50.19;100419.72;4455470;32;34755;-75
2023/10/10 14:54:37;;;;;;;;;;;;;;;22.26;50.40;100420.66;4463098;32;33858;-75
2023/10/10 14:57:05;;;;;;;;;;;;;;;22.37;50.76;100423.37;4461131;32;33681;-73
2023/10/10 14:59:35;;;;;;;;;;;;;;;22.26;50.58;100425.06;4459954;32;34626;-75
2023/10/10 15:02:04;;;;;;;;;;;;;;;22.31;50.53;100418.03;4468291;32;34253;-74
2023/10/10 15:04:33;;;;;;;;;;;;;;;22.28;50.49;100425.97;4459405;32;33787;-72
2023/10/10 15:07:04;;;;;;;;;;;;;;;22.20;50.66;100420.59;4461137;32;33447;-76
2023/10/10 15:09:35;;;;;;;;;;;;;;;22.30;50.53;100424.22;4461348;32;34973;-74
2023/10/10 15:12:03;;;;;;;;;;;;;;;22.30;50.60;100426.84;4463842;32;33903;-73
2023/10/10 15:14:33;;;;;;;;;;;;;;;22.21;50.88;100426.75;4463860;32;32757;-74
2023/10/10 15:17:04;;;;;;;;;;;;;;;22.26;50.96;100438.25;4464011;32;33995;-73
2023/10/10 15:19:32;;;;;;;;;;;;;;;22.27;51.00;100442.66;4463365;32;33556;-74
2023/10/10 15:22:00;;;;;;;;;;;;;;;22.14;51.27;100436.38;4456245;32;35144;-75
2023/10/10 15:24:30;;;;;;;;;;;;;;;21.91;51.73;100438.84;4461457;32;33743;-74
2023/10/10 15:26:59;;;;;;;;;;;;;;;21.90;52.01;100432.66;4457882;32;33246;-76
2023/10/10 15:29:27;;;;;;;;;;;;;;;21.91;52.09;100444.09;4463878;32;32288;-73
2023/10/10 15:31:56;;;;;;;;;;;;;;;21.66;52.81;100449.16;4475907;32;32543;-73
2023/10/10 15:34:24;;;;;;;;;;;;;;;21.43;52.87;100463.81;4461763;32;34139;-77
2023/10/10 15:36:51;;;;;;;;;;;;;;;21.31;51.70;100462.81;4462271;32;33628;-76
2023/10/10 15:39:19;;;;;;;;;;;;;;;21.14;52.08;100462.59;4457633;32;34061;-75
2023/10/10 15:41:46;;;;;;;;;;;;;;;20.92;52.34;100469.34;4460003;32;34792;-75
2023/10/10 15:44:15;;;;;;;;;;;;;;;20.84;51.68;100468.34;4457422;32;34597;-74
2023/10/10 15:46:46;;;;;;;;;;;;;;;20.59;52.31;100475.91;4455225;32;33590;-73
2023/10/10 15:49:14;;;;;;;;;;;;;;;20.58;52.39;100479.34;4463789;32;33313;-75
2023/10/10 15:51:44;;;;;;;;;;;;;;;20.59;51.54;100480.22;4456659;32;33976;-74
2023/10/10 15:54:14;;;;;;;;;;;;;;;20.55;51.03;100484.59;4465210;32;34133;-73
2023/10/10 15:56:42;;;;;;;;;;;;;;;20.18;51.75;100470.84;4456179;32;33176;-73
2023/10/10 15:59:14;;;;;;;;;;;;;;;20.21;51.74;100473.53;4464705;32;33799;-76
2023/10/10 16:01:46;;;;;;;;;;;;;;;20.00;52.15;100478.44;4460682;32;33976;-74
2023/10/10 16:04:16;;;;;;;;;;;;;;;19.94;52.25;100479.22;4457489;32;34321;-73
2023/10/10 16:06:46;;;;;;;;;;;;;;;19.97;52.27;100473.09;4466118;32;33394;-75
2023/10/10 16:09:29;;;;;;;;;;;;;;;19.92;52.28;100472.16;4468404;32;33821;-72
2023/10/10 16:11:57;;;;;;;;;;;;;;;19.81;52.71;100475.47;4459345;32;33727;-74
2023/10/10 16:14:25;;;;;;;;;;;;;;;19.81;52.87;100470.22;4465080;32;33489;-73
2023/10/10 16:16:54;;;;;;;;;;;;;;;19.79;53.00;100479.81;4455921;32;34118;-72
2023/10/10 16:19:34;;;;;;;;;;;;;;;19.84;52.88;100483.41;4460830;32;34440;-76